x

San Clemente Basin - 27nm Se Of San Clemente Is, Ca (46086) Wave Buoy

5:50pm - Thu 21st Aug 2014 All times are PDT. -7 hours from GMT.

  • Sig Wave height 5.6ft
  • Swell Direction
  • Peak Period 11s
  • Average Period 8s
  • Wind
    13mph, 16mph gusts
  • Sea Temp 71°f
  • Air Temp 69°f
  • Sea Pressure 1012.5mb
  • San Clemente Basin - 27nm Se Of San Clemente Is, Ca
  • San Clemente Basin - 27nm Se Of San Clemente Is, Ca

More Historic Weather Station data

Upgrade to MSW Pro to gain access to the past 30 days of data for over 8000 Wavebouys and Weather Stations around the globe.

Join Pro

Comparision Forecast

View Surf forecast
   
Thu 08/21 5:50pm 5.5ft 11s 8s 13 16 mph 1012.5mb 71f 69f
4:50pm 6ft 11s 9s 13 16 mph 1012.7mb 71f 69f
3:50pm 5.5ft 12s 9s 11 13 mph 1012.6mb 71f 69f
2:50pm 5ft 12s 9s 11 13 mph 1013.3mb 71f 68f
1:50pm 6ft 11s 10s 11 13 mph 1014.1mb 71f 68f
12:50pm 6.5ft 11s 10s 11 13 mph 1014.2mb 70f 68f
11:50am 5ft 10s 9s 9 11 mph 1014.7mb 70f 68f
10:50am 5ft 12s 9s 9 11 mph 1014.9mb 70f 68f
9:50am 5ft 11s 9s 9 11 mph 1014.6mb 70f 67f
8:50am 5ft 12s 9s 9 11 mph 1014.3mb 70f 67f
7:50am 5ft 12s 10s 11 13 mph 1014mb 70f 67f
6:50am 5ft 12s 9s 9 11 mph 1013.4mb 70f 67f
5:50am 4.5ft 12s 9s 7 9 mph 1012.8mb 70f 67f
4:50am 4ft 11s 8s 7 9 mph 1012.8mb 70f 67f
3:50am 3.5ft 14s 8s 7 9 mph 1013.1mb 70f 67f
2:50am 3.5ft 11s 7s 7 9 mph 1013.4mb 70f 67f
1:50am 3.5ft 11s 7s 7 9 mph 1013.4mb 70f 67f
12:50am 3.5ft 14s 7s 9 11 mph 1013.7mb 70f 67f
Wed 08/20 11:50pm 3.5ft 13s 7s 9 11 mph 1013.8mb 70f 67f
10:50pm 3ft 14s 6s 9 11 mph 1013.5mb 70f 67f
9:50pm 3ft 14s 6s 11 13 mph 1013.2mb 70f 68f
8:50pm 3ft 13s 6s 9 11 mph 1012.9mb 70f 68f
7:50pm 3ft 15s 7s 9 11 mph 1012.5mb 70f 68f
6:50pm 2.5ft 15s 6s 11 13 mph 1012.2mb 71f 68f
5:50pm 2.5ft 14s 6s 11 13 mph 1012.4mb 71f 68f
4:50pm 2.5ft 15s 7s 11
mph
1012.3mb 71f 68f
3:50pm 2.5ft 14s 7s 9 11 mph 1012.6mb 71f 69f
2:50pm 3ft 15s 7s 9 11 mph 1013.1mb 71f 68f
1:50pm 3ft 14s 7s 7 9 mph 1013.7mb 71f 68f
12:50pm 3ft 15s 7s 7 9 mph 1014mb 71f 68f
11:50am 3.5ft 15s 6s 7 9 mph 1014.4mb 70f 68f
10:50am 3ft 14s 6s 9 11 mph 1014.4mb 70f 68f
9:50am 3.5ft 15s 7s 9 11 mph 1013.8mb 70f 68f
8:50am 3.5ft 15s 7s 7 9 mph 1013.4mb 70f 67f
7:50am 3.5ft 15s 7s 4 7 mph 1013.1mb 70f 67f
6:50am 3.5ft 14s 7s 2 7 mph 1012.6mb 70f 67f
5:50am 3.5ft 15s 7s 4
mph
1012.1mb 70f 67f
4:50am 3.5ft 15s 7s 4
mph
1011.9mb 70f 67f
3:50am 3.5ft 15s 7s 7 9 mph 1012.1mb 70f 67f
2:50am 3.5ft 15s 7s 4 7 mph 1012.1mb 70f 67f
1:50am 3.5ft 15s 7s 4 7 mph 1012.1mb 70f 67f
12:50am 3.5ft 15s 7s 2 4 mph 1012.2mb 70f 67f
Tue 08/19 11:50pm 4.5ft 15s 7s 4 7 mph 1012.1mb 70f 67f
10:50pm 3.5ft 15s 7s 7 9 mph 1012.1mb 70f 67f
9:50pm 4ft 15s 7s 4 9 mph 1011.9mb 70f 67f
8:50pm 3.5ft 14s 7s 9 11 mph 1011.5mb 70f 68f
7:50pm 3.5ft 15s 7s 4 9 mph 1011.1mb 70f 67f
6:50pm 4ft 14s 7s 7 9 mph 1010.9mb 70f 67f
5:50pm 3.5ft 15s 7s 9 13 mph 1010.9mb 70f 67f
4:50pm 3.5ft 16s 7s 9 13 mph 1011.1mb 70f 67f
3:50pm 3.5ft 15s 7s 9 11 mph 1011.2mb 70f 67f
2:50pm 3.5ft 15s 7s 9 11 mph 1012mb 70f 67f
1:50pm 3.5ft 15s 7s 7 9 mph 1012.7mb 70f 67f
12:50pm 3.5ft 15s 7s 7
mph
1012.8mb 70f 66f
11:50am 3.5ft 15s 7s 4 7 mph 1013.2mb 70f 66f
10:50am 4ft 15s 7s 4 7 mph 1013.3mb 70f 66f
9:50am 3.5ft 7s 6s 4 9 mph 1013mb 70f 65f
8:50am 4ft 15s 7s  -  2 mph 1012.6mb 70f 66f
7:50am 4ft 15s 6s 4 7 mph 1012.1mb 70f 66f
6:50am 4.5ft 15s 7s 4 9 mph 1011.8mb 70f 65f
5:50am 4ft 11s 7s 2 7 mph 1011.3mb 70f 65f
4:50am 4.5ft 16s 7s 7 11 mph 1011.4mb 70f 66f
3:50am 4.5ft 15s 7s 7 11 mph 1011.4mb 70f 66f
2:50am 4ft 11s 7s 4 7 mph 1011.2mb 70f 67f
1:50am 4.5ft 16s 7s 2 4 mph 1011.2mb 70f 67f
12:50am 4.5ft 16s 6s 4 9 mph 1011.6mb 70f 67f
Mon 08/18 11:50pm 4.5ft 12s 6s 7
mph
1011.7mb 70f 67f
10:50pm 4.5ft 16s 6s 9 11 mph 1011.4mb 70f 67f
9:50pm 4.5ft 15s 6s 9 11 mph 1011.3mb 70f 67f
8:50pm 4.5ft 11s 6s 11 13 mph 1010.8mb 70f 67f
7:50pm 5ft 15s 6s 11 13 mph 1010.1mb 70f 67f
6:50pm 4.5ft 11s 6s 13 16 mph 1009.7mb 71f 67f
5:50pm 4.5ft 15s 6s 11 16 mph 1009.4mb 71f 67f
4:50pm 4.5ft 16s 6s 9 11 mph 1009.7mb 71f 67f
3:50pm 4.5ft 8s 6s 9 13 mph 1010mb 71f 67f
2:50pm 4.5ft 7s 6s 9 13 mph 1010.2mb 71f 67f
1:50pm 5ft 8s 7s 16 18 mph 1010.3mb 71f 66f
12:50pm 4.5ft 8s 7s 11 13 mph 1011mb 71f 66f
11:50am 4.5ft 8s 6s 7 9 mph 1011.7mb 70f 66f
10:50am 4.5ft 16s 6s 9 11 mph 1011.9mb 70f 66f
9:50am 5ft 16s 6s 9 13 mph 1012mb 70f 67f
8:50am 5ft 7s 6s 11 13 mph 1011.4mb 70f 66f
7:50am 5ft 7s 6s 9 11 mph 1011.8mb 70f 66f
6:50am 5ft 7s 6s 2 4 mph 1011.9mb 70f 66f
5:50am 5ft 14s 6s 9 13 mph 1011.1mb 70f 66f
4:50am 5ft 6s 6s 16 20 mph 1010.5mb 70f 66f
3:50am 5ft 15s 6s 16 20 mph 1010.9mb 71f 66f
2:50am 5ft 16s 6s 13 18 mph 1011.2mb 71f 66f